sensor_id;sensor_type;location;lat;lon;timestamp;pressure;altitude;pressure_sealevel;temperature;humidity
16793;BME280;8513;42.662;23.350;2023-02-12T00:01:00;95842.09;;;2.45;33.41
16793;BME280;8513;42.662;23.350;2023-02-12T00:03:25;95845.47;;;2.62;33.10
16793;BME280;8513;42.662;23.350;2023-02-12T00:05:51;95855.75;;;2.48;33.51
16793;BME280;8513;42.662;23.350;2023-02-12T00:08:16;95846.78;;;2.54;33.48
16793;BME280;8513;42.662;23.350;2023-02-12T00:10:42;95854.00;;;2.49;33.55
16793;BME280;8513;42.662;23.350;2023-02-12T00:13:09;95852.25;;;2.49;33.29
16793;BME280;8513;42.662;23.350;2023-02-12T00:15:38;95849.22;;;2.41;33.56
16793;BME280;8513;42.662;23.350;2023-02-12T00:18:03;95847.88;;;2.50;33.31
16793;BME280;8513;42.662;23.350;2023-02-12T00:20:29;95853.41;;;2.43;33.60
16793;BME280;8513;42.662;23.350;2023-02-12T00:22:54;95856.16;;;2.40;33.88
16793;BME280;8513;42.662;23.350;2023-02-12T00:25:19;95857.16;;;2.54;33.47
16793;BME280;8513;42.662;23.350;2023-02-12T00:27:45;95854.25;;;2.44;33.12
16793;BME280;8513;42.662;23.350;2023-02-12T00:30:11;95848.47;;;2.39;33.47
16793;BME280;8513;42.662;23.350;2023-02-12T00:32:36;95847.47;;;2.41;33.28
16793;BME280;8513;42.662;23.350;2023-02-12T00:35:02;95844.94;;;2.40;33.44
16793;BME280;8513;42.662;23.350;2023-02-12T00:37:27;95824.94;;;2.42;33.32
16793;BME280;8513;42.662;23.350;2023-02-12T00:39:53;95828.34;;;2.27;33.51
16793;BME280;8513;42.662;23.350;2023-02-12T00:42:18;95819.81;;;2.40;33.57
16793;BME280;8513;42.662;23.350;2023-02-12T00:44:44;95816.88;;;2.31;33.50
16793;BME280;8513;42.662;23.350;2023-02-12T00:47:09;95816.06;;;2.46;33.06
16793;BME280;8513;42.662;23.350;2023-02-12T00:49:34;95829.28;;;2.41;33.30
16793;BME280;8513;42.662;23.350;2023-02-12T00:52:01;95826.03;;;2.38;33.49
16793;BME280;8513;42.662;23.350;2023-02-12T00:54:27;95820.97;;;2.35;33.77
16793;BME280;8513;42.662;23.350;2023-02-12T00:56:53;95809.88;;;2.33;33.74
16793;BME280;8513;42.662;23.350;2023-02-12T00:59:21;95816.16;;;2.45;33.53
16793;BME280;8513;42.662;23.350;2023-02-12T01:01:46;95813.78;;;2.40;33.41
16793;BME280;8513;42.662;23.350;2023-02-12T01:04:11;95806.09;;;2.38;33.58
16793;BME280;8513;42.662;23.350;2023-02-12T01:06:37;95809.03;;;2.48;33.31
16793;BME280;8513;42.662;23.350;2023-02-12T01:09:02;95811.44;;;2.51;33.64
16793;BME280;8513;42.662;23.350;2023-02-12T01:11:28;95807.69;;;2.41;33.62
16793;BME280;8513;42.662;23.350;2023-02-12T01:13:53;95807.94;;;2.52;33.84
16793;BME280;8513;42.662;23.350;2023-02-12T01:16:22;95812.63;;;2.61;33.41
16793;BME280;8513;42.662;23.350;2023-02-12T01:18:49;95818.22;;;2.54;33.54
16793;BME280;8513;42.662;23.350;2023-02-12T01:21:17;95817.56;;;2.50;33.55
16793;BME280;8513;42.662;23.350;2023-02-12T01:23:44;95819.31;;;2.34;33.67
16793;BME280;8513;42.662;23.350;2023-02-12T01:26:10;95820.16;;;2.34;33.92
16793;BME280;8513;42.662;23.350;2023-02-12T01:28:40;95823.16;;;2.42;33.91
16793;BME280;8513;42.662;23.350;2023-02-12T01:31:11;95828.28;;;2.44;33.98
16793;BME280;8513;42.662;23.350;2023-02-12T01:33:38;95834.38;;;2.43;34.41
16793;BME280;8513;42.662;23.350;2023-02-12T01:36:03;95821.34;;;2.45;33.86
16793;BME280;8513;42.662;23.350;2023-02-12T01:38:29;95826.88;;;2.54;34.31
16793;BME280;8513;42.662;23.350;2023-02-12T01:41:07;95815.56;;;2.55;34.28
16793;BME280;8513;42.662;23.350;2023-02-12T01:43:34;95808.59;;;2.40;34.25
16793;BME280;8513;42.662;23.350;2023-02-12T01:46:01;95810.03;;;2.46;34.43
16793;BME280;8513;42.662;23.350;2023-02-12T01:48:30;95809.03;;;2.48;34.43
16793;BME280;8513;42.662;23.350;2023-02-12T01:50:58;95811.78;;;2.45;34.40
16793;BME280;8513;42.662;23.350;2023-02-12T01:53:28;95800.97;;;2.37;34.35
16793;BME280;8513;42.662;23.350;2023-02-12T01:55:58;95797.72;;;2.33;34.78
16793;BME280;8513;42.662;23.350;2023-02-12T01:58:27;95793.78;;;2.42;34.21
16793;BME280;8513;42.662;23.350;2023-02-12T02:00:54;95798.31;;;2.38;34.46
16793;BME280;8513;42.662;23.350;2023-02-12T02:03:20;95798.56;;;2.34;34.83
16793;BME280;8513;42.662;23.350;2023-02-12T02:06:10;95795.44;;;2.43;34.54
16793;BME280;8513;42.662;23.350;2023-02-12T02:08:38;95795.63;;;2.40;34.77
16793;BME280;8513;42.662;23.350;2023-02-12T02:11:04;95803.94;;;2.47;34.56
16793;BME280;8513;42.662;23.350;2023-02-12T02:13:50;95795.53;;;2.41;34.91
16793;BME280;8513;42.662;23.350;2023-02-12T02:16:34;95805.69;;;2.46;34.93
16793;BME280;8513;42.662;23.350;2023-02-12T02:27:14;95795.69;;;2.23;36.02
16793;BME280;8513;42.662;23.350;2023-02-12T02:35:51;95792.47;;;2.02;36.73
16793;BME280;8513;42.662;23.350;2023-02-12T02:38:26;95781.59;;;2.11;36.52
16793;BME280;8513;42.662;23.350;2023-02-12T02:41:03;95771.56;;;2.05;36.46
16793;BME280;8513;42.662;23.350;2023-02-12T02:43:35;95775.75;;;2.07;36.48
16793;BME280;8513;42.662;23.350;2023-02-12T02:46:10;95788.50;;;2.12;36.45
16793;BME280;8513;42.662;23.350;2023-02-12T02:48:42;95781.78;;;2.24;36.59
16793;BME280;8513;42.662;23.350;2023-02-12T02:51:13;95794.03;;;2.37;36.61
16793;BME280;8513;42.662;23.350;2023-02-12T02:53:47;95795.19;;;2.32;36.54
16793;BME280;8513;42.662;23.350;2023-02-12T02:56:16;95794.88;;;2.38;36.59
16793;BME280;8513;42.662;23.350;2023-02-12T02:58:47;95791.75;;;2.15;36.83
16793;BME280;8513;42.662;23.350;2023-02-12T03:01:21;95791.19;;;2.26;36.80
16793;BME280;8513;42.662;23.350;2023-02-12T03:06:25;95800.63;;;2.43;36.59
16793;BME280;8513;42.662;23.350;2023-02-12T03:08:56;95792.59;;;2.48;36.83
16793;BME280;8513;42.662;23.350;2023-02-12T03:11:28;95789.19;;;2.47;36.72
16793;BME280;8513;42.662;23.350;2023-02-12T03:14:07;95784.00;;;2.47;36.96
16793;BME280;8513;42.662;23.350;2023-02-12T03:17:02;95789.41;;;2.42;37.01
16793;BME280;8513;42.662;23.350;2023-02-12T03:19:37;95787.75;;;2.26;37.62
16793;BME280;8513;42.662;23.350;2023-02-12T03:22:10;95772.59;;;2.34;37.27
16793;BME280;8513;42.662;23.350;2023-02-12T03:24:44;95790.00;;;2.32;37.62
16793;BME280;8513;42.662;23.350;2023-02-12T03:27:26;95790.00;;;2.48;37.49
16793;BME280;8513;42.662;23.350;2023-02-12T03:29:53;95782.31;;;2.14;38.14
16793;BME280;8513;42.662;23.350;2023-02-12T03:38:01;95778.94;;;2.12;38.50
16793;BME280;8513;42.662;23.350;2023-02-12T03:40:38;95779.78;;;2.29;38.23
16793;BME280;8513;42.662;23.350;2023-02-12T03:43:09;95780.72;;;2.28;38.48
16793;BME280;8513;42.662;23.350;2023-02-12T03:45:56;95778.88;;;2.30;38.61
16793;BME280;8513;42.662;23.350;2023-02-12T03:51:19;95778.72;;;1.84;39.20
16793;BME280;8513;42.662;23.350;2023-02-12T03:53:47;95786.19;;;1.90;39.62
16793;BME280;8513;42.662;23.350;2023-02-12T03:56:24;95785.53;;;2.02;39.30
16793;BME280;8513;42.662;23.350;2023-02-12T03:58:51;95787.13;;;2.05;39.07
16793;BME280;8513;42.662;23.350;2023-02-12T04:01:17;95786.25;;;1.88;39.64
16793;BME280;8513;42.662;23.350;2023-02-12T04:03:42;95779.75;;;1.97;39.60
16793;BME280;8513;42.662;23.350;2023-02-12T04:06:22;95779.13;;;2.09;39.31
16793;BME280;8513;42.662;23.350;2023-02-12T04:08:48;95775.00;;;2.05;39.25
16793;BME280;8513;42.662;23.350;2023-02-12T04:11:35;95787.75;;;2.26;39.35
16793;BME280;8513;42.662;23.350;2023-02-12T04:14:21;95783.75;;;2.36;38.97
16793;BME280;8513;42.662;23.350;2023-02-12T04:27:56;95810.28;;;2.25;39.24
16793;BME280;8513;42.662;23.350;2023-02-12T04:30:32;95806.13;;;2.05;39.73
16793;BME280;8513;42.662;23.350;2023-02-12T04:33:02;95800.34;;;2.00;39.66
16793;BME280;8513;42.662;23.350;2023-02-12T04:38:14;95803.97;;;2.13;39.59
16793;BME280;8513;42.662;23.350;2023-02-12T04:40:43;95799.28;;;2.04;40.03
16793;BME280;8513;42.662;23.350;2023-02-12T04:43:08;95802.84;;;2.02;40.05
16793;BME280;8513;42.662;23.350;2023-02-12T04:45:36;95811.00;;;2.11;39.64
16793;BME280;8513;42.662;23.350;2023-02-12T04:48:02;95808.38;;;1.95;40.32
16793;BME280;8513;42.662;23.350;2023-02-12T04:50:44;95808.16;;;1.83;40.34
16793;BME280;8513;42.662;23.350;2023-02-12T04:53:10;95809.97;;;1.98;40.48
16793;BME280;8513;42.662;23.350;2023-02-12T04:55:36;95809.09;;;2.15;39.98
16793;BME280;8513;42.662;23.350;2023-02-12T04:58:02;95819.81;;;2.25;39.68
16793;BME280;8513;42.662;23.350;2023-02-12T05:00:27;95813.13;;;1.87;40.63
16793;BME280;8513;42.662;23.350;2023-02-12T05:02:53;95807.47;;;1.79;40.76
16793;BME280;8513;42.662;23.350;2023-02-12T05:05:19;95812.38;;;1.85;41.06
16793;BME280;8513;42.662;23.350;2023-02-12T05:07:45;95811.00;;;2.11;40.63
16793;BME280;8513;42.662;23.350;2023-02-12T05:10:10;95816.75;;;2.16;40.40
16793;BME280;8513;42.662;23.350;2023-02-12T05:12:36;95816.72;;;2.34;40.04
16793;BME280;8513;42.662;23.350;2023-02-12T05:15:01;95815.28;;;2.28;40.26
16793;BME280;8513;42.662;23.350;2023-02-12T05:17:26;95819.47;;;2.31;39.96
16793;BME280;8513;42.662;23.350;2023-02-12T05:19:52;95819.50;;;2.47;39.69
16793;BME280;8513;42.662;23.350;2023-02-12T05:22:17;95831.34;;;2.35;39.84
16793;BME280;8513;42.662;23.350;2023-02-12T05:24:43;95835.56;;;2.37;39.48
16793;BME280;8513;42.662;23.350;2023-02-12T05:27:08;95839.06;;;2.36;39.51
16793;BME280;8513;42.662;23.350;2023-02-12T05:29:35;95839.56;;;2.43;39.98
16793;BME280;8513;42.662;23.350;2023-02-12T05:32:00;95848.88;;;2.47;40.10
16793;BME280;8513;42.662;23.350;2023-02-12T05:34:26;95844.53;;;2.48;40.19
16793;BME280;8513;42.662;23.350;2023-02-12T05:36:51;95842.34;;;2.40;40.06
16793;BME280;8513;42.662;23.350;2023-02-12T05:39:17;95855.66;;;2.34;41.18
16793;BME280;8513;42.662;23.350;2023-02-12T05:41:42;95874.88;;;2.30;41.11
16793;BME280;8513;42.662;23.350;2023-02-12T05:44:08;95853.16;;;1.99;42.16
16793;BME280;8513;42.662;23.350;2023-02-12T05:46:36;95860.38;;;2.10;42.21
16793;BME280;8513;42.662;23.350;2023-02-12T05:49:01;95870.13;;;2.05;42.61
16793;BME280;8513;42.662;23.350;2023-02-12T05:51:27;95869.19;;;2.23;42.63
16793;BME280;8513;42.662;23.350;2023-02-12T05:53:58;95869.69;;;2.30;42.90
16793;BME280;8513;42.662;23.350;2023-02-12T05:56:29;95868.66;;;2.16;43.36
16793;BME280;8513;42.662;23.350;2023-02-12T05:59:00;95874.00;;;2.13;43.88
16793;BME280;8513;42.662;23.350;2023-02-12T06:01:35;95878.03;;;2.19;44.16
16793;BME280;8513;42.662;23.350;2023-02-12T06:04:03;95868.63;;;2.01;44.42
16793;BME280;8513;42.662;23.350;2023-02-12T06:06:29;95875.00;;;2.11;44.27
16793;BME280;8513;42.662;23.350;2023-02-12T06:08:55;95883.09;;;2.22;44.54
16793;BME280;8513;42.662;23.350;2023-02-12T06:11:21;95883.50;;;1.97;45.60
16793;BME280;8513;42.662;23.350;2023-02-12T06:13:47;95875.25;;;2.06;45.30
16793;BME280;8513;42.662;23.350;2023-02-12T06:16:22;95869.16;;;2.07;45.78
16793;BME280;8513;42.662;23.350;2023-02-12T06:18:49;95884.56;;;2.10;46.07
16793;BME280;8513;42.662;23.350;2023-02-12T06:21:15;95894.94;;;2.10;46.42
16793;BME280;8513;42.662;23.350;2023-02-12T06:23:40;95898.28;;;1.95;47.71
16793;BME280;8513;42.662;23.350;2023-02-12T06:26:06;95892.69;;;1.69;48.64
16793;BME280;8513;42.662;23.350;2023-02-12T06:28:32;95891.91;;;1.85;48.66
16793;BME280;8513;42.662;23.350;2023-02-12T06:30:57;95890.84;;;2.06;48.90
16793;BME280;8513;42.662;23.350;2023-02-12T06:33:23;95893.19;;;1.76;49.42
16793;BME280;8513;42.662;23.350;2023-02-12T06:35:48;95892.38;;;1.93;49.44
16793;BME280;8513;42.662;23.350;2023-02-12T06:38:13;95898.28;;;1.95;50.80
16793;BME280;8513;42.662;23.350;2023-02-12T06:40:39;95907.78;;;1.96;51.06
16793;BME280;8513;42.662;23.350;2023-02-12T06:43:05;95907.06;;;1.92;51.61
16793;BME280;8513;42.662;23.350;2023-02-12T06:45:32;95904.69;;;2.05;51.36
16793;BME280;8513;42.662;23.350;2023-02-12T06:47:58;95910.22;;;1.99;51.67
16793;BME280;8513;42.662;23.350;2023-02-12T06:50:23;95904.72;;;1.70;52.91
16793;BME280;8513;42.662;23.350;2023-02-12T06:52:49;95897.34;;;1.80;52.76
16793;BME280;8513;42.662;23.350;2023-02-12T06:55:14;95896.41;;;1.98;52.26
16793;BME280;8513;42.662;23.350;2023-02-12T06:57:40;95904.94;;;1.83;53.15
16793;BME280;8513;42.662;23.350;2023-02-12T07:00:06;95882.06;;;1.91;52.88
16793;BME280;8513;42.662;23.350;2023-02-12T07:02:32;95895.25;;;1.87;53.15
16793;BME280;8513;42.662;23.350;2023-02-12T07:04:57;95892.38;;;1.93;52.73
16793;BME280;8513;42.662;23.350;2023-02-12T07:07:23;95903.13;;;1.85;53.14
16793;BME280;8513;42.662;23.350;2023-02-12T07:09:48;95896.66;;;1.76;53.52
16793;BME280;8513;42.662;23.350;2023-02-12T07:12:14;95894.97;;;1.93;52.82
16793;BME280;8513;42.662;23.350;2023-02-12T07:14:39;95902.13;;;1.88;53.09
16793;BME280;8513;42.662;23.350;2023-02-12T07:17:04;95899.06;;;2.14;52.46
16793;BME280;8513;42.662;23.350;2023-02-12T07:19:32;95904.91;;;2.18;51.90
16793;BME280;8513;42.662;23.350;2023-02-12T07:21:57;95900.50;;;2.20;51.92
16793;BME280;8513;42.662;23.350;2023-02-12T07:24:23;95909.28;;;2.17;51.99
16793;BME280;8513;42.662;23.350;2023-02-12T07:26:48;95908.84;;;2.09;52.44
16793;BME280;8513;42.662;23.350;2023-02-12T07:29:14;95902.94;;;2.23;52.10
16793;BME280;8513;42.662;23.350;2023-02-12T07:31:40;95905.78;;;2.01;52.69
16793;BME280;8513;42.662;23.350;2023-02-12T07:34:06;95905.47;;;2.07;52.65
16793;BME280;8513;42.662;23.350;2023-02-12T07:36:32;95900.94;;;2.28;52.25
16793;BME280;8513;42.662;23.350;2023-02-12T07:38:58;95903.91;;;2.20;52.61
16793;BME280;8513;42.662;23.350;2023-02-12T07:41:34;95904.97;;;2.34;52.31
16793;BME280;8513;42.662;23.350;2023-02-12T07:44:05;95911.22;;;2.30;52.15
16793;BME280;8513;42.662;23.350;2023-02-12T07:46:43;95916.06;;;2.20;52.44
16793;BME280;8513;42.662;23.350;2023-02-12T07:49:12;95917.56;;;2.24;52.58
16793;BME280;8513;42.662;23.350;2023-02-12T07:51:38;95921.16;;;2.21;52.75
16793;BME280;8513;42.662;23.350;2023-02-12T07:54:04;95927.03;;;2.25;52.96
16793;BME280;8513;42.662;23.350;2023-02-12T07:56:31;95922.75;;;2.24;53.17
16793;BME280;8513;42.662;23.350;2023-02-12T07:59:04;95921.47;;;2.33;52.70
16793;BME280;8513;42.662;23.350;2023-02-12T08:01:35;95919.94;;;2.29;53.00
16793;BME280;8513;42.662;23.350;2023-02-12T08:04:04;95925.66;;;2.35;52.93
16793;BME280;8513;42.662;23.350;2023-02-12T08:06:32;95928.53;;;2.47;52.67
16793;BME280;8513;42.662;23.350;2023-02-12T08:08:59;95928.09;;;2.38;53.03
16793;BME280;8513;42.662;23.350;2023-02-12T08:11:27;95937.50;;;2.24;53.29
16793;BME280;8513;42.662;23.350;2023-02-12T08:13:53;95933.06;;;2.26;53.38
16793;BME280;8513;42.662;23.350;2023-02-12T08:16:22;95926.69;;;1.98;53.80
16793;BME280;8513;42.662;23.350;2023-02-12T08:18:48;95931.19;;;2.12;53.73
16793;BME280;8513;42.662;23.350;2023-02-12T08:21:22;95932.84;;;2.13;53.92
16793;BME280;8513;42.662;23.350;2023-02-12T08:23:49;95938.25;;;2.26;53.58
16793;BME280;8513;42.662;23.350;2023-02-12T08:28:51;95951.00;;;2.30;53.56
16793;BME280;8513;42.662;23.350;2023-02-12T08:31:23;95950.69;;;2.19;53.81
16793;BME280;8513;42.662;23.350;2023-02-12T08:33:51;95953.66;;;2.29;53.76
16793;BME280;8513;42.662;23.350;2023-02-12T08:36:19;95956.81;;;2.18;54.03
16793;BME280;8513;42.662;23.350;2023-02-12T08:38:46;95957.03;;;2.13;54.10
16793;BME280;8513;42.662;23.350;2023-02-12T08:41:14;95959.13;;;2.40;53.81
16793;BME280;8513;42.662;23.350;2023-02-12T08:43:40;95962.56;;;2.58;53.34
16793;BME280;8513;42.662;23.350;2023-02-12T08:46:14;95964.81;;;2.31;54.02
16793;BME280;8513;42.662;23.350;2023-02-12T08:48:40;95969.69;;;2.37;53.97
16793;BME280;8513;42.662;23.350;2023-02-12T08:51:09;95983.59;;;2.36;53.82
16793;BME280;8513;42.662;23.350;2023-02-12T08:53:37;95969.47;;;2.41;53.81
16793;BME280;8513;42.662;23.350;2023-02-12T08:56:03;95967.41;;;2.13;54.50
16793;BME280;8513;42.662;23.350;2023-02-12T08:58:29;95977.94;;;2.10;54.84
16793;BME280;8513;42.662;23.350;2023-02-12T09:00:54;95983.91;;;2.12;54.62
16793;BME280;8513;42.662;23.350;2023-02-12T09:03:20;95980.00;;;2.38;54.08
16793;BME280;8513;42.662;23.350;2023-02-12T09:05:46;95986.09;;;2.37;54.19
16793;BME280;8513;42.662;23.350;2023-02-12T09:08:11;95994.03;;;2.34;54.59
16793;BME280;8513;42.662;23.350;2023-02-12T09:10:41;95990.31;;;2.05;55.48
16793;BME280;8513;42.662;23.350;2023-02-12T09:13:07;95986.50;;;2.12;55.58
16793;BME280;8513;42.662;23.350;2023-02-12T09:15:37;95993.81;;;2.39;55.33
16793;BME280;8513;42.662;23.350;2023-02-12T09:18:03;95995.34;;;2.08;55.76
16793;BME280;8513;42.662;23.350;2023-02-12T09:20:29;95996.03;;;2.29;55.69
16793;BME280;8513;42.662;23.350;2023-02-12T09:22:57;95996.97;;;2.61;54.60
16793;BME280;8513;42.662;23.350;2023-02-12T09:25:22;95999.69;;;2.42;55.22
16793;BME280;8513;42.662;23.350;2023-02-12T09:27:48;96004.34;;;2.36;55.56
16793;BME280;8513;42.662;23.350;2023-02-12T09:30:14;96005.72;;;2.26;56.05
16793;BME280;8513;42.662;23.350;2023-02-12T09:32:39;96001.47;;;2.07;56.47
16793;BME280;8513;42.662;23.350;2023-02-12T09:35:05;95996.41;;;1.87;57.27
16793;BME280;8513;42.662;23.350;2023-02-12T09:37:30;96001.91;;;2.15;56.10
16793;BME280;8513;42.662;23.350;2023-02-12T09:40:26;96014.56;;;2.21;55.74
16793;BME280;8513;42.662;23.350;2023-02-12T09:49:07;96002.06;;;2.12;56.40
16793;BME280;8513;42.662;23.350;2023-02-12T09:51:36;96017.25;;;2.37;55.64
16793;BME280;8513;42.662;23.350;2023-02-12T09:54:09;96011.22;;;2.54;55.13
16793;BME280;8513;42.662;23.350;2023-02-12T09:56:37;96018.50;;;2.63;55.04
16793;BME280;8513;42.662;23.350;2023-02-12T09:59:06;96018.28;;;2.68;54.48
16793;BME280;8513;42.662;23.350;2023-02-12T10:01:33;96010.09;;;2.76;54.57
16793;BME280;8513;42.662;23.350;2023-02-12T10:03:59;96009.50;;;2.71;54.69
16793;BME280;8513;42.662;23.350;2023-02-12T10:06:28;96009.66;;;2.68;54.92
16793;BME280;8513;42.662;23.350;2023-02-12T10:27:51;96007.25;;;3.45;52.59
16793;BME280;8513;42.662;23.350;2023-02-12T10:30:46;96014.19;;;3.61;52.08
16793;BME280;8513;42.662;23.350;2023-02-12T10:33:23;96012.69;;;3.57;52.18
16793;BME280;8513;42.662;23.350;2023-02-12T10:35:54;96015.47;;;3.69;51.42
16793;BME280;8513;42.662;23.350;2023-02-12T10:38:30;96008.66;;;3.67;51.30
16793;BME280;8513;42.662;23.350;2023-02-12T10:40:57;96007.41;;;3.58;51.74
16793;BME280;8513;42.662;23.350;2023-02-12T10:43:26;96006.91;;;3.51;52.26
16793;BME280;8513;42.662;23.350;2023-02-12T10:45:52;96014.13;;;3.46;52.22
16793;BME280;8513;42.662;23.350;2023-02-12T10:48:20;96028.31;;;3.57;52.07
16793;BME280;8513;42.662;23.350;2023-02-12T10:53:36;96016.13;;;3.25;53.19
16793;BME280;8513;42.662;23.350;2023-02-12T10:58:33;96020.50;;;3.57;52.05
16793;BME280;8513;42.662;23.350;2023-02-12T11:01:00;96018.66;;;3.59;52.27
16793;BME280;8513;42.662;23.350;2023-02-12T11:03:29;96023.25;;;3.22;52.91
16793;BME280;8513;42.662;23.350;2023-02-12T11:06:10;96019.66;;;3.40;53.08
16793;BME280;8513;42.662;23.350;2023-02-12T11:08:36;96018.31;;;3.49;52.67
16793;BME280;8513;42.662;23.350;2023-02-12T11:11:22;96024.03;;;3.56;52.82
16793;BME280;8513;42.662;23.350;2023-02-12T11:14:03;96021.00;;;3.31;53.55
16793;BME280;8513;42.662;23.350;2023-02-12T11:18:58;96012.94;;;3.52;52.87
16793;BME280;8513;42.662;23.350;2023-02-12T11:21:24;96005.13;;;3.68;52.52
16793;BME280;8513;42.662;23.350;2023-02-12T11:23:50;96003.31;;;4.00;51.71
16793;BME280;8513;42.662;23.350;2023-02-12T11:29:02;96012.91;;;3.84;52.62
16793;BME280;8513;42.662;23.350;2023-02-12T11:31:34;96012.03;;;3.69;52.78
16793;BME280;8513;42.662;23.350;2023-02-12T11:34:17;96016.94;;;4.19;51.76
16793;BME280;8513;42.662;23.350;2023-02-12T11:36:51;96009.53;;;3.97;52.01
16793;BME280;8513;42.662;23.350;2023-02-12T11:39:27;96003.78;;;4.23;51.40
16793;BME280;8513;42.662;23.350;2023-02-12T11:41:59;96003.22;;;4.32;51.18
16793;BME280;8513;42.662;23.350;2023-02-12T11:44:28;95996.28;;;4.47;50.79
16793;BME280;8513;42.662;23.350;2023-02-12T11:47:05;96004.09;;;4.47;50.38
16793;BME280;8513;42.662;23.350;2023-02-12T11:52:25;96007.81;;;4.42;50.75
16793;BME280;8513;42.662;23.350;2023-02-12T11:54:56;96003.84;;;4.80;49.68
16793;BME280;8513;42.662;23.350;2023-02-12T11:57:35;96005.91;;;5.03;49.18
16793;BME280;8513;42.662;23.350;2023-02-12T12:00:05;96001.31;;;4.64;49.52
16793;BME280;8513;42.662;23.350;2023-02-12T12:02:38;96001.91;;;4.98;49.21
16793;BME280;8513;42.662;23.350;2023-02-12T12:05:12;95998.75;;;5.21;47.91
16793;BME280;8513;42.662;23.350;2023-02-12T12:07:43;96000.59;;;5.05;48.51
16793;BME280;8513;42.662;23.350;2023-02-12T12:10:37;96008.34;;;4.33;50.50
16793;BME280;8513;42.662;23.350;2023-02-12T12:13:12;96005.03;;;4.15;50.76
16793;BME280;8513;42.662;23.350;2023-02-12T12:15:43;96011.53;;;4.08;50.90
16793;BME280;8513;42.662;23.350;2023-02-12T12:18:31;96021.41;;;4.17;51.09
16793;BME280;8513;42.662;23.350;2023-02-12T12:23:50;96010.97;;;4.33;50.88
16793;BME280;8513;42.662;23.350;2023-02-12T12:26:25;96011.81;;;4.48;50.52
16793;BME280;8513;42.662;23.350;2023-02-12T12:29:12;96019.25;;;4.40;50.40
16793;BME280;8513;42.662;23.350;2023-02-12T12:31:44;96018.16;;;4.58;49.81
16793;BME280;8513;42.662;23.350;2023-02-12T12:34:14;96011.03;;;4.76;49.43
16793;BME280;8513;42.662;23.350;2023-02-12T12:39:31;96022.03;;;4.81;49.31
16793;BME280;8513;42.662;23.350;2023-02-12T12:54:09;96026.94;;;5.15;47.92
16793;BME280;8513;42.662;23.350;2023-02-12T13:10:59;96048.47;;;4.45;49.92
16793;BME280;8513;42.662;23.350;2023-02-12T13:13:36;96043.69;;;4.37;50.49
16793;BME280;8513;42.662;23.350;2023-02-12T13:16:10;96047.69;;;4.43;50.63
16793;BME280;8513;42.662;23.350;2023-02-12T13:18:54;96049.81;;;4.67;49.60
16793;BME280;8513;42.662;23.350;2023-02-12T13:21:44;96053.13;;;4.54;50.23
16793;BME280;8513;42.662;23.350;2023-02-12T13:29:18;96050.50;;;4.10;51.14
16793;BME280;8513;42.662;23.350;2023-02-12T13:31:48;96052.50;;;4.35;50.63
16793;BME280;8513;42.662;23.350;2023-02-12T13:34:17;96054.16;;;4.22;50.94
16793;BME280;8513;42.662;23.350;2023-02-12T13:36:44;96051.66;;;4.20;51.09
16793;BME280;8513;42.662;23.350;2023-02-12T13:39:35;96051.78;;;4.17;51.78
16793;BME280;8513;42.662;23.350;2023-02-12T13:44:49;96065.38;;;4.22;51.43
16793;BME280;8513;42.662;23.350;2023-02-12T13:47:20;96056.44;;;4.42;50.43
16793;BME280;8513;42.662;23.350;2023-02-12T13:58:48;96074.50;;;4.45;50.73
16793;BME280;8513;42.662;23.350;2023-02-12T14:01:39;96080.34;;;4.18;51.74
16793;BME280;8513;42.662;23.350;2023-02-12T14:09:21;96083.88;;;4.33;51.41
16793;BME280;8513;42.662;23.350;2023-02-12T14:11:52;96090.56;;;4.37;51.11
16793;BME280;8513;42.662;23.350;2023-02-12T14:14:28;96093.16;;;4.37;51.30
16793;BME280;8513;42.662;23.350;2023-02-12T14:16:55;96097.22;;;4.27;51.28
16793;BME280;8513;42.662;23.350;2023-02-12T14:25:25;96099.50;;;4.33;51.30
16793;BME280;8513;42.662;23.350;2023-02-12T14:28:19;96109.38;;;4.42;50.92
16793;BME280;8513;42.662;23.350;2023-02-12T14:33:43;96111.72;;;4.47;51.10
16793;BME280;8513;42.662;23.350;2023-02-12T14:36:36;96118.34;;;4.53;50.67
16793;BME280;8513;42.662;23.350;2023-02-12T14:41:48;96121.63;;;4.40;51.32
16793;BME280;8513;42.662;23.350;2023-02-12T14:47:00;96129.81;;;4.34;51.38
16793;BME280;8513;42.662;23.350;2023-02-12T14:49:38;96142.66;;;4.37;51.48
16793;BME280;8513;42.662;23.350;2023-02-12T14:57:47;96132.53;;;4.63;50.74
16793;BME280;8513;42.662;23.350;2023-02-12T15:05:24;96153.47;;;4.46;50.77
16793;BME280;8513;42.662;23.350;2023-02-12T15:07:58;96155.22;;;4.61;50.92
16793;BME280;8513;42.662;23.350;2023-02-12T15:10:41;96159.75;;;4.57;50.79
16793;BME280;8513;42.662;23.350;2023-02-12T15:15:59;96173.81;;;4.55;50.80
16793;BME280;8513;42.662;23.350;2023-02-12T15:18:32;96181.25;;;4.61;50.37
16793;BME280;8513;42.662;23.350;2023-02-12T15:23:39;96192.22;;;4.52;51.06
16793;BME280;8513;42.662;23.350;2023-02-12T15:26:12;96206.66;;;4.57;50.82
16793;BME280;8513;42.662;23.350;2023-02-12T15:28:39;96204.66;;;4.47;51.18
16793;BME280;8513;42.662;23.350;2023-02-12T15:31:06;96211.78;;;4.43;51.44
16793;BME280;8513;42.662;23.350;2023-02-12T15:33:38;96217.75;;;4.45;51.61
16793;BME280;8513;42.662;23.350;2023-02-12T15:36:09;96220.94;;;4.34;51.82
16793;BME280;8513;42.662;23.350;2023-02-12T15:38:40;96220.28;;;4.47;51.70
16793;BME280;8513;42.662;23.350;2023-02-12T15:41:06;96223.63;;;4.33;51.99
16793;BME280;8513;42.662;23.350;2023-02-12T15:43:34;96225.38;;;4.32;52.01
16793;BME280;8513;42.662;23.350;2023-02-12T15:46:02;96227.31;;;4.29;52.05
16793;BME280;8513;42.662;23.350;2023-02-12T15:48:30;96227.97;;;4.32;52.14
16793;BME280;8513;42.662;23.350;2023-02-12T15:53:53;96236.72;;;4.31;52.49
16793;BME280;8513;42.662;23.350;2023-02-12T15:56:21;96235.03;;;4.30;52.64
16793;BME280;8513;42.662;23.350;2023-02-12T15:58:50;96239.59;;;4.27;52.60
16793;BME280;8513;42.662;23.350;2023-02-12T16:01:25;96239.09;;;4.36;52.28
16793;BME280;8513;42.662;23.350;2023-02-12T16:03:55;96249.06;;;4.12;52.78
16793;BME280;8513;42.662;23.350;2023-02-12T16:06:23;96264.41;;;4.01;53.44
16793;BME280;8513;42.662;23.350;2023-02-12T16:08:59;96269.63;;;4.16;53.07
16793;BME280;8513;42.662;23.350;2023-02-12T16:11:27;96269.78;;;4.13;52.99